Time;durP1;ratioP1;P1;durP2;ratioP2;P2;SDS_P1;SDS_P2;PMS_P1;PMS_P2;Temp;Humidity;BMP_temperature;BMP_pressure;BME280_temperature;BME280_humidity;BME280_pressure;Samples;Min_cycle;Max_cycle;Signal;HPM_P1;HPM_P2
2022/05/23 00:01:59;;;;;;;14.65;13.82;;;;;;;;;;5033521;28;20033;-68
2022/05/23 00:04:25;;;;;;;14.88;14.00;;;;;;;;;;5030149;28;20112;-67
2022/05/23 00:06:50;;;;;;;12.70;11.90;;;;;;;;;;5029670;28;20025;-68
2022/05/23 00:09:16;;;;;;;14.77;13.98;;;;;;;;;;5039073;28;20062;-68
2022/05/23 00:11:42;;;;;;;13.43;12.63;;;;;;;;;;5035455;28;20028;-68
2022/05/23 00:14:08;;;;;;;12.10;11.40;;;;;;;;;;5033932;28;20044;-67
2022/05/23 00:16:37;;;;;;;11.73;11.02;;;;;;;;;;5034540;28;20039;-68
2022/05/23 00:19:03;;;;;;;12.63;11.88;;;;;;;;;;5035647;28;20043;-67
2022/05/23 00:21:29;;;;;;;12.73;11.95;;;;;;;;;;5039489;28;20036;-68
2022/05/23 00:23:54;;;;;;;11.25;10.55;;;;;;;;;;5037108;28;20033;-67
2022/05/23 00:26:21;;;;;;;12.50;11.77;;;;;;;;;;5037510;28;20156;-68
2022/05/23 00:28:48;;;;;;;12.60;11.85;;;;;;;;;;5035507;28;20666;-68
2022/05/23 00:31:13;;;;;;;15.05;14.15;;;;;;;;;;5037935;28;20124;-67
2022/05/23 00:36:31;;;;;;;13.95;13.15;;;;;;;;;;5033554;28;20406;-66
2022/05/23 00:38:56;;;;;;;17.90;16.90;;;;;;;;;;5036773;28;20041;-66
2022/05/23 00:44:18;;;;;;;15.50;14.52;;;;;;;;;;5036083;28;20037;-66
2022/05/23 00:46:54;;;;;;;12.85;12.10;;;;;;;;;;5031449;28;20037;-65
2022/05/23 00:49:31;;;;;;;13.90;13.00;;;;;;;;;;5035012;28;20574;-66
2022/05/23 00:51:59;;;;;;;9.75;9.15;;;;;;;;;;5034920;28;20033;-68
2022/05/23 00:54:32;;;;;;;9.57;8.88;;;;;;;;;;5034313;28;20136;-68
2022/05/23 00:56:57;;;;;;;9.68;9.07;;;;;;;;;;5035798;28;20557;-68
2022/05/23 00:59:29;;;;;;;10.80;10.10;;;;;;;;;;5033161;28;20044;-68
2022/05/23 01:01:55;;;;;;;9.93;9.23;;;;;;;;;;5034515;28;20068;-68
2022/05/23 01:04:21;;;;;;;10.07;9.38;;;;;;;;;;5033744;28;20351;-68
2022/05/23 01:06:46;;;;;;;10.48;9.82;;;;;;;;;;5033922;28;20045;-67
2022/05/23 01:09:12;;;;;;;9.88;9.27;;;;;;;;;;5036681;28;20046;-68
2022/05/23 01:11:39;;;;;;;9.60;9.00;;;;;;;;;;5036360;28;20044;-68
2022/05/23 01:14:05;;;;;;;10.02;9.43;;;;;;;;;;5036134;28;20041;-68
2022/05/23 01:16:31;;;;;;;10.98;10.18;;;;;;;;;;5035038;28;20143;-68
2022/05/23 01:18:57;;;;;;;9.80;9.20;;;;;;;;;;5034786;28;20025;-68
2022/05/23 01:21:57;;;;;;;10.52;9.82;;;;;;;;;;5034751;28;20063;-69
2022/05/23 01:24:29;;;;;;;10.20;9.50;;;;;;;;;;5034779;28;20064;-68
2022/05/23 01:26:56;;;;;;;9.65;9.05;;;;;;;;;;5032205;28;20643;-68
2022/05/23 01:29:21;;;;;;;9.38;8.77;;;;;;;;;;5034602;28;20037;-69
2022/05/23 01:31:47;;;;;;;10.52;9.82;;;;;;;;;;5033319;28;20461;-69
2022/05/23 01:34:12;;;;;;;11.55;10.85;;;;;;;;;;5034765;28;20049;-68
2022/05/23 01:36:38;;;;;;;11.75;11.05;;;;;;;;;;5034185;28;20026;-68
2022/05/23 01:39:03;;;;;;;11.90;11.18;;;;;;;;;;5035485;28;20048;-69
2022/05/23 01:41:28;;;;;;;11.60;10.90;;;;;;;;;;5035143;28;20064;-68
2022/05/23 01:43:54;;;;;;;12.23;11.32;;;;;;;;;;5031377;28;20037;-68
2022/05/23 01:46:20;;;;;;;10.90;10.23;;;;;;;;;;5032812;28;20578;-68
2022/05/23 01:48:46;;;;;;;13.05;12.25;;;;;;;;;;5038126;28;20032;-68
2022/05/23 01:51:12;;;;;;;10.50;9.82;;;;;;;;;;5033456;28;20091;-68
2022/05/23 01:53:37;;;;;;;10.38;9.75;;;;;;;;;;5034061;28;20041;-68
2022/05/23 01:56:06;;;;;;;10.40;9.70;;;;;;;;;;5033230;28;20033;-69
2022/05/23 02:01:17;;;;;;;10.70;10.02;;;;;;;;;;5035674;28;20029;-69
2022/05/23 02:03:44;;;;;;;10.32;9.73;;;;;;;;;;5033652;28;20114;-68
2022/05/23 02:06:09;;;;;;;9.25;8.65;;;;;;;;;;5033501;28;20371;-68
2022/05/23 02:08:35;;;;;;;9.40;8.80;;;;;;;;;;5031281;28;20029;-68
2022/05/23 02:11:01;;;;;;;8.55;8.00;;;;;;;;;;5034855;28;20036;-68
2022/05/23 02:13:26;;;;;;;8.90;8.30;;;;;;;;;;5031444;28;20578;-68
2022/05/23 02:15:51;;;;;;;8.80;8.20;;;;;;;;;;5031946;28;20033;-68
2022/05/23 02:18:17;;;;;;;8.65;8.10;;;;;;;;;;5032986;28;20417;-68
2022/05/23 02:20:42;;;;;;;8.23;7.72;;;;;;;;;;5032890;28;20041;-68
2022/05/23 02:23:08;;;;;;;7.90;7.40;;;;;;;;;;5034566;28;20352;-68
2022/05/23 02:25:33;;;;;;;8.07;7.57;;;;;;;;;;5033260;28;20357;-68
2022/05/23 02:27:59;;;;;;;9.73;8.65;;;;;;;;;;5030074;28;20080;-68
2022/05/23 02:30:24;;;;;;;9.73;9.13;;;;;;;;;;5031602;28;20033;-68
2022/05/23 02:32:50;;;;;;;9.10;8.50;;;;;;;;;;5036493;28;20037;-68
2022/05/23 02:35:17;;;;;;;9.35;8.75;;;;;;;;;;5030652;28;20108;-67
2022/05/23 02:37:43;;;;;;;9.40;8.68;;;;;;;;;;5033952;28;20064;-68
2022/05/23 02:40:10;;;;;;;8.70;8.15;;;;;;;;;;5033263;28;20053;-69
2022/05/23 02:42:36;;;;;;;8.70;8.15;;;;;;;;;;5033130;28;20029;-68
2022/05/23 02:45:02;;;;;;;9.23;8.30;;;;;;;;;;5032559;28;20065;-68
2022/05/23 02:47:28;;;;;;;7.88;7.38;;;;;;;;;;5035342;28;20071;-69
2022/05/23 02:49:54;;;;;;;9.43;7.68;;;;;;;;;;5031401;28;20503;-68
2022/05/23 02:52:19;;;;;;;7.72;7.22;;;;;;;;;;5031030;28;20116;-68
2022/05/23 02:54:45;;;;;;;7.90;7.40;;;;;;;;;;5034860;28;20033;-68
2022/05/23 02:57:11;;;;;;;9.70;8.90;;;;;;;;;;5031938;28;20143;-68
2022/05/23 02:59:36;;;;;;;8.50;7.88;;;;;;;;;;5032647;28;20120;-68
2022/05/23 03:04:47;;;;;;;9.23;8.63;;;;;;;;;;5031765;28;20036;-68
2022/05/23 03:07:12;;;;;;;7.97;7.47;;;;;;;;;;5032896;28;20037;-68
2022/05/23 03:09:37;;;;;;;7.75;7.25;;;;;;;;;;5034177;28;20086;-69
2022/05/23 03:12:03;;;;;;;7.60;7.10;;;;;;;;;;5030739;28;20056;-69
2022/05/23 03:14:29;;;;;;;8.70;8.18;;;;;;;;;;5031364;28;20566;-68
2022/05/23 03:16:59;;;;;;;8.35;7.85;;;;;;;;;;5033419;28;20029;-69
2022/05/23 03:19:25;;;;;;;8.40;7.85;;;;;;;;;;5030664;28;20025;-68
2022/05/23 03:27:18;;;;;;;7.63;7.13;;;;;;;;;;5034613;28;20037;-68
2022/05/23 03:29:43;;;;;;;8.32;7.72;;;;;;;;;;5033840;28;20049;-68
2022/05/23 03:32:08;;;;;;;8.20;7.70;;;;;;;;;;5029347;28;20037;-71
2022/05/23 03:34:34;;;;;;;8.90;8.30;;;;;;;;;;5029883;28;20044;-69
2022/05/23 03:36:59;;;;;;;8.50;8.00;;;;;;;;;;5030450;28;20034;-69
2022/05/23 03:39:24;;;;;;;8.15;7.65;;;;;;;;;;5031004;28;20102;-68
2022/05/23 03:41:53;;;;;;;8.10;7.55;;;;;;;;;;5030186;28;20417;-69
2022/05/23 03:44:18;;;;;;;8.50;8.00;;;;;;;;;;5033208;28;20636;-69
2022/05/23 03:46:44;;;;;;;9.45;8.85;;;;;;;;;;5031278;28;20112;-68
2022/05/23 03:49:09;;;;;;;8.02;7.53;;;;;;;;;;5028307;28;20034;-68
2022/05/23 03:51:37;;;;;;;8.55;7.95;;;;;;;;;;5033646;28;20029;-69
2022/05/23 03:54:03;;;;;;;7.85;7.25;;;;;;;;;;5036027;28;20025;-68
2022/05/23 03:56:29;;;;;;;7.53;7.03;;;;;;;;;;5031381;28;20037;-67
2022/05/23 03:58:55;;;;;;;7.25;6.75;;;;;;;;;;5030337;28;20044;-68
2022/05/23 04:01:23;;;;;;;8.68;8.07;;;;;;;;;;5034314;28;20044;-68
2022/05/23 04:03:48;;;;;;;7.65;7.15;;;;;;;;;;5033530;28;20052;-68
2022/05/23 04:06:13;;;;;;;8.60;8.00;;;;;;;;;;5029984;28;20034;-68
2022/05/23 04:08:39;;;;;;;7.47;6.97;;;;;;;;;;5032141;28;20688;-68
2022/05/23 04:11:05;;;;;;;7.32;6.72;;;;;;;;;;5028175;28;20094;-68
2022/05/23 04:13:30;;;;;;;8.50;7.90;;;;;;;;;;5031883;28;20100;-68
2022/05/23 04:15:56;;;;;;;8.77;8.13;;;;;;;;;;5032673;28;20071;-68
2022/05/23 04:18:22;;;;;;;7.60;7.10;;;;;;;;;;5033455;28;20190;-68
2022/05/23 04:20:48;;;;;;;8.20;7.65;;;;;;;;;;5029390;28;20037;-68
2022/05/23 04:23:14;;;;;;;8.77;8.20;;;;;;;;;;5034182;28;20045;-68
2022/05/23 04:25:45;;;;;;;10.77;10.07;;;;;;;;;;5033357;28;20040;-69
2022/05/23 04:28:11;;;;;;;;;;;;;;;;;;5031291;28;20458;-68
2022/05/23 04:30:36;;;;;;;7.65;6.97;;;;;;;;;;5033412;28;20518;-68
2022/05/23 04:35:49;;;;;;;7.88;7.30;;;;;;;;;;5030687;28;20033;-68
2022/05/23 04:38:16;;;;;;;8.55;7.85;;;;;;;;;;5032371;28;20094;-68
2022/05/23 04:40:41;;;;;;;7.53;7.03;;;;;;;;;;5030325;28;20026;-69
2022/05/23 04:43:06;;;;;;;6.85;6.35;;;;;;;;;;5031653;28;20557;-69
2022/05/23 04:45:32;;;;;;;6.57;6.07;;;;;;;;;;5031224;28;20550;-69
2022/05/23 04:50:41;;;;;;;7.28;6.78;;;;;;;;;;5031089;28;20182;-68
2022/05/23 04:53:07;;;;;;;7.40;6.90;;;;;;;;;;5033970;28;20448;-69
2022/05/23 04:55:33;;;;;;;8.07;7.57;;;;;;;;;;5035810;28;20067;-68
2022/05/23 04:57:59;;;;;;;7.70;7.20;;;;;;;;;;5035190;28;20040;-67
2022/05/23 05:00:25;;;;;;;7.78;7.28;;;;;;;;;;5035508;28;20037;-67
2022/05/23 05:02:51;;;;;;;7.28;6.78;;;;;;;;;;5035663;28;20059;-69
2022/05/23 05:05:18;;;;;;;6.93;6.43;;;;;;;;;;5032919;28;20582;-67
2022/05/23 05:07:44;;;;;;;8.77;8.18;;;;;;;;;;5033172;28;20071;-68
2022/05/23 05:10:09;;;;;;;9.30;8.70;;;;;;;;;;5039018;28;20091;-68
2022/05/23 05:12:35;;;;;;;10.32;9.63;;;;;;;;;;5033825;28;20044;-68
2022/05/23 05:15:00;;;;;;;9.77;9.18;;;;;;;;;;5036154;28;20125;-68
2022/05/23 05:17:26;;;;;;;9.70;9.10;;;;;;;;;;5031714;28;20203;-69
2022/05/23 05:19:51;;;;;;;11.10;10.40;;;;;;;;;;5032157;28;20518;-68
2022/05/23 05:22:17;;;;;;;10.85;10.15;;;;;;;;;;5034019;28;20447;-69
2022/05/23 05:24:42;;;;;;;10.73;10.03;;;;;;;;;;5035955;28;20034;-70
2022/05/23 05:27:09;;;;;;;12.27;11.57;;;;;;;;;;5035027;28;20033;-72
2022/05/23 05:29:35;;;;;;;11.82;11.13;;;;;;;;;;5036372;28;20166;-73
2022/05/23 05:32:01;;;;;;;11.30;10.60;;;;;;;;;;5033635;28;20124;-71
2022/05/23 05:34:32;;;;;;;11.75;10.95;;;;;;;;;;5032362;28;20057;-70
2022/05/23 05:37:05;;;;;;;12.07;11.27;;;;;;;;;;5033350;28;20033;-71
2022/05/23 05:39:32;;;;;;;10.45;9.77;;;;;;;;;;5033679;28;20048;-70
2022/05/23 05:42:09;;;;;;;10.85;10.15;;;;;;;;;;5033323;28;20465;-71
2022/05/23 05:44:37;;;;;;;8.82;8.23;;;;;;;;;;5031701;28;20029;-71
2022/05/23 05:47:08;;;;;;;9.02;8.43;;;;;;;;;;5036234;28;20046;-68
2022/05/23 05:49:35;;;;;;;7.70;7.20;;;;;;;;;;5031463;28;20050;-68
2022/05/23 05:52:03;;;;;;;8.02;7.47;;;;;;;;;;5033068;28;20529;-69
2022/05/23 05:54:30;;;;;;;9.07;8.48;;;;;;;;;;5033499;28;20061;-71
2022/05/23 05:56:58;;;;;;;7.65;7.15;;;;;;;;;;5034906;28;20032;-71
2022/05/23 05:59:24;;;;;;;9.20;8.60;;;;;;;;;;5032956;28;20482;-72
2022/05/23 06:01:50;;;;;;;9.15;8.55;;;;;;;;;;5038137;28;20173;-72
2022/05/23 06:04:15;;;;;;;8.95;8.35;;;;;;;;;;5033060;28;20037;-72
2022/05/23 06:12:09;;;;;;;9.05;8.45;;;;;;;;;;5034959;28;20029;-73
2022/05/23 06:14:34;;;;;;;8.98;8.38;;;;;;;;;;5032354;28;20102;-74
2022/05/23 06:17:00;;;;;;;7.57;7.07;;;;;;;;;;5035130;28;20073;-74
2022/05/23 06:19:25;;;;;;;8.95;8.35;;;;;;;;;;5032147;28;20025;-72
2022/05/23 06:21:51;;;;;;;8.13;7.43;;;;;;;;;;5032661;28;20037;-73
2022/05/23 06:24:16;;;;;;;7.70;7.20;;;;;;;;;;5032435;28;20029;-74
2022/05/23 06:26:41;;;;;;;8.02;7.45;;;;;;;;;;5037161;28;20041;-74
2022/05/23 06:29:07;;;;;;;7.80;7.30;;;;;;;;;;5034545;28;20044;-72
2022/05/23 06:31:33;;;;;;;8.77;8.18;;;;;;;;;;5033590;28;20029;-69
2022/05/23 06:33:58;;;;;;;9.00;8.23;;;;;;;;;;5030666;28;20086;-69
2022/05/23 06:36:23;;;;;;;7.22;6.72;;;;;;;;;;5033102;28;20021;-71
2022/05/23 06:38:49;;;;;;;8.38;7.88;;;;;;;;;;5034776;28;20047;-71
2022/05/23 06:41:15;;;;;;;9.07;8.48;;;;;;;;;;5034372;28;20507;-71
2022/05/23 06:43:42;;;;;;;8.60;8.07;;;;;;;;;;5031310;28;20041;-71
2022/05/23 06:46:09;;;;;;;9.23;8.63;;;;;;;;;;5035709;28;20663;-73
2022/05/23 06:48:35;;;;;;;9.52;8.93;;;;;;;;;;5031101;28;20097;-73
2022/05/23 06:51:02;;;;;;;11.57;10.88;;;;;;;;;;5033207;28;20331;-73
2022/05/23 06:53:29;;;;;;;11.45;10.75;;;;;;;;;;5031727;28;20048;-72
2022/05/23 06:55:55;;;;;;;11.50;10.80;;;;;;;;;;5031866;28;20056;-70
2022/05/23 06:58:21;;;;;;;13.60;12.65;;;;;;;;;;5031990;28;20064;-68
2022/05/23 07:00:51;;;;;;;13.23;12.43;;;;;;;;;;5032362;28;20635;-71
2022/05/23 07:03:16;;;;;;;12.40;11.70;;;;;;;;;;5031809;28;20049;-72
2022/05/23 07:13:55;;;;;;;14.07;13.27;;;;;;;;;;5030785;28;20041;-70
2022/05/23 07:16:22;;;;;;;13.82;12.93;;;;;;;;;;5030202;28;20044;-70
2022/05/23 07:18:47;;;;;;;14.57;13.70;;;;;;;;;;5034228;28;20029;-74
2022/05/23 07:21:13;;;;;;;16.27;15.38;;;;;;;;;;5030584;28;20451;-72
2022/05/23 07:23:38;;;;;;;19.05;17.95;;;;;;;;;;5035102;28;20040;-71
2022/05/23 07:26:05;;;;;;;16.45;15.45;;;;;;;;;;5033012;28;20110;-70
2022/05/23 07:28:31;;;;;;;20.75;19.55;;;;;;;;;;5032008;28;20045;-72
2022/05/23 07:30:57;;;;;;;19.13;18.02;;;;;;;;;;5031194;28;20043;-72
2022/05/23 07:33:23;;;;;;;22.52;21.17;;;;;;;;;;5030405;28;20029;-72
2022/05/23 07:35:56;;;;;;;21.80;20.60;;;;;;;;;;5030955;28;20426;-69
2022/05/23 07:38:22;;;;;;;17.08;16.08;;;;;;;;;;5034251;28;20049;-70
2022/05/23 07:40:52;;;;;;;17.63;16.65;;;;;;;;;;5028551;28;20034;-70
2022/05/23 07:43:18;;;;;;;18.60;17.55;;;;;;;;;;5031979;28;20047;-70
2022/05/23 07:45:44;;;;;;;24.17;22.85;;;;;;;;;;5029652;28;20111;-70
2022/05/23 07:48:10;;;;;;;23.10;21.85;;;;;;;;;;5022045;28;20056;-71
2022/05/23 07:50:37;;;;;;;22.05;20.80;;;;;;;;;;5026401;28;20553;-71
2022/05/23 08:01:15;;;;;;;8.50;7.95;;;;;;;;;;5030362;28;20033;-70
2022/05/23 08:03:41;;;;;;;8.65;8.02;;;;;;;;;;5035548;28;20040;-70
2022/05/23 08:06:09;;;;;;;8.82;8.23;;;;;;;;;;5032143;28;20033;-70
2022/05/23 08:08:34;;;;;;;12.50;11.80;;;;;;;;;;5029127;28;20406;-70
2022/05/23 08:11:00;;;;;;;14.38;13.57;;;;;;;;;;5029928;28;20025;-70
2022/05/23 08:13:26;;;;;;;19.30;18.10;;;;;;;;;;5029574;28;20049;-67
2022/05/23 08:15:51;;;;;;;21.60;20.42;;;;;;;;;;5030567;28;20052;-68
2022/05/23 08:18:18;;;;;;;24.98;23.67;;;;;;;;;;5035561;28;20037;-60
2022/05/23 08:20:44;;;;;;;29.20;27.63;;;;;;;;;;5029330;28;20121;-59
2022/05/23 08:23:10;;;;;;;16.55;15.65;;;;;;;;;;5029801;28;20037;-60
2022/05/23 08:25:35;;;;;;;32.47;30.67;;;;;;;;;;5034001;28;20021;-59
2022/05/23 08:28:01;;;;;;;24.98;23.58;;;;;;;;;;5034085;28;20025;-59
2022/05/23 08:30:27;;;;;;;29.88;28.27;;;;;;;;;;5031347;28;20021;-59
2022/05/23 08:32:53;;;;;;;38.97;36.95;;;;;;;;;;5029660;28;20504;-59
2022/05/23 08:35:21;;;;;;;34.67;32.90;;;;;;;;;;5030148;28;20033;-59
2022/05/23 08:37:46;;;;;;;25.70;24.30;;;;;;;;;;5029694;28;20040;-59
2022/05/23 08:40:12;;;;;;;36.90;35.00;;;;;;;;;;5022988;28;20087;-59
2022/05/23 08:42:56;;;;;;;44.22;41.97;;;;;;;;;;5023602;28;20037;-60
2022/05/23 08:45:26;;;;;;;38.45;36.45;;;;;;;;;;5025192;28;20041;-60
2022/05/23 08:48:03;;;;;;;41.60;39.50;;;;;;;;;;5028172;28;20995;-59
2022/05/23 08:50:46;;;;;;;49.03;46.45;;;;;;;;;;5025457;28;20042;-72
2022/05/23 08:53:18;;;;;;;43.70;41.50;;;;;;;;;;5036612;28;20047;-72
2022/05/23 08:55:48;;;;;;;45.67;43.38;;;;;;;;;;5031730;28;20030;-72
2022/05/23 08:58:23;;;;;;;46.42;44.05;;;;;;;;;;5033033;28;20048;-72
2022/05/23 09:00:54;;;;;;;48.30;45.85;;;;;;;;;;5035940;28;20037;-72
2022/05/23 09:03:25;;;;;;;47.42;45.03;;;;;;;;;;5037763;28;20175;-72
2022/05/23 09:05:57;;;;;;;28.85;27.05;;;;;;;;;;5034994;28;20044;-72
2022/05/23 09:08:25;;;;;;;41.40;39.22;;;;;;;;;;5031577;28;20033;-72
2022/05/23 09:11:03;;;;;;;34.08;32.28;;;;;;;;;;5035616;28;20025;-72
2022/05/23 09:13:32;;;;;;;32.28;30.58;;;;;;;;;;5036187;28;20494;-71
2022/05/23 09:16:04;;;;;;;31.20;29.50;;;;;;;;;;5034729;28;20029;-71
2022/05/23 09:18:40;;;;;;;24.83;23.52;;;;;;;;;;5030688;28;20061;-71
2022/05/23 09:21:08;;;;;;;22.92;21.67;;;;;;;;;;5034298;28;20386;-68
2022/05/23 09:23:40;;;;;;;23.50;22.20;;;;;;;;;;5034233;28;20121;-72
2022/05/23 09:26:12;;;;;;;26.63;25.23;;;;;;;;;;5033922;28;20090;-72
2022/05/23 09:28:39;;;;;;;22.45;21.25;;;;;;;;;;5032640;28;20486;-68
2022/05/23 09:31:23;;;;;;;24.63;23.27;;;;;;;;;;5033186;28;20037;-67
2022/05/23 09:33:51;;;;;;;24.60;23.30;;;;;;;;;;5035244;28;20577;-70
2022/05/23 09:36:26;;;;;;;28.42;26.95;;;;;;;;;;5036823;28;20458;-72
2022/05/23 09:39:01;;;;;;;26.85;25.42;;;;;;;;;;5034950;28;20056;-72
2022/05/23 09:50:37;;;;;;;20.90;19.75;;;;;;;;;;5012696;28;20533;-72
2022/05/23 09:53:03;;;;;;;20.48;19.38;;;;;;;;;;5007030;28;20049;-70
2022/05/23 09:55:33;;;;;;;29.80;28.20;;;;;;;;;;5027010;28;20033;-71
2022/05/23 09:58:05;;;;;;;21.43;20.23;;;;;;;;;;5033474;28;20036;-70
2022/05/23 10:00:56;;;;;;;23.50;22.23;;;;;;;;;;5035432;28;20765;-70
2022/05/23 10:03:23;;;;;;;22.98;21.73;;;;;;;;;;5034004;28;20056;-72
2022/05/23 10:06:02;;;;;;;25.20;23.85;;;;;;;;;;5030827;28;20037;-72
2022/05/23 10:08:28;;;;;;;26.00;24.60;;;;;;;;;;5035173;28;20033;-71
2022/05/23 10:10:57;;;;;;;23.48;22.17;;;;;;;;;;5035886;28;20043;-68
2022/05/23 10:13:28;;;;;;;27.98;26.48;;;;;;;;;;5043167;28;20029;-69
2022/05/23 10:16:16;;;;;;;23.70;22.40;;;;;;;;;;5028509;28;20044;-69
2022/05/23 10:19:01;;;;;;;22.50;21.30;;;;;;;;;;5029899;28;20037;-69
2022/05/23 10:21:40;;;;;;;27.05;25.50;;;;;;;;;;5035201;28;20044;-70
2022/05/23 10:24:24;;;;;;;26.50;24.98;;;;;;;;;;5035053;28;20025;-68
2022/05/23 10:26:56;;;;;;;27.63;26.02;;;;;;;;;;5030866;28;20028;-70
2022/05/23 10:29:28;;;;;;;23.67;22.30;;;;;;;;;;5034542;28;20096;-71
2022/05/23 10:32:07;;;;;;;24.58;23.08;;;;;;;;;;5032410;28;20064;-67
2022/05/23 10:34:48;;;;;;;24.08;22.73;;;;;;;;;;5035417;28;20033;-69
2022/05/23 10:37:23;;;;;;;23.63;22.08;;;;;;;;;;5034397;28;20033;-73
2022/05/23 10:42:49;;;;;;;20.55;19.25;;;;;;;;;;5034694;28;20064;-73
2022/05/23 10:45:30;;;;;;;21.85;20.65;;;;;;;;;;5033257;28;20033;-73
2022/05/23 10:48:15;;;;;;;32.25;30.55;;;;;;;;;;5032095;28;20060;-70
2022/05/23 10:51:07;;;;;;;57.95;54.95;;;;;;;;;;5033044;28;20037;-74
2022/05/23 10:53:51;;;;;;;53.53;50.83;;;;;;;;;;5031394;28;20045;-70
2022/05/23 10:56:46;;;;;;;36.70;34.72;;;;;;;;;;5030908;28;20049;-69
2022/05/23 10:59:22;;;;;;;70.30;66.80;;;;;;;;;;5031341;28;20052;-72
2022/05/23 11:01:47;;;;;;;59.65;56.55;;;;;;;;;;5033850;28;20021;-72
2022/05/23 11:04:38;;;;;;;67.82;64.43;;;;;;;;;;5033402;28;20087;-71
2022/05/23 11:07:23;;;;;;;78.95;75.05;;;;;;;;;;5032656;28;20035;-71
2022/05/23 11:10:07;;;;;;;64.13;60.92;;;;;;;;;;5033595;28;20029;-69
2022/05/23 11:12:56;;;;;;;67.53;64.15;;;;;;;;;;5032329;28;20037;-70
2022/05/23 11:15:27;;;;;;;62.55;59.45;;;;;;;;;;5032646;28;20025;-70
2022/05/23 11:18:07;;;;;;;66.18;62.88;;;;;;;;;;5033358;28;20164;-70
2022/05/23 11:20:38;;;;;;;69.00;65.47;;;;;;;;;;5032769;28;20053;-73
2022/05/23 11:23:15;;;;;;;61.10;58.00;;;;;;;;;;5033836;28;20036;-71
2022/05/23 11:25:53;;;;;;;62.50;59.38;;;;;;;;;;5032679;28;20069;-69
2022/05/23 11:34:30;;;;;;;57.60;54.70;;;;;;;;;;5032019;28;20076;-72
2022/05/23 11:40:06;;;;;;;55.45;52.65;;;;;;;;;;5031621;28;20442;-73
2022/05/23 11:42:58;;;;;;;55.15;52.35;;;;;;;;;;5031080;28;20028;-71
2022/05/23 11:48:35;;;;;;;53.08;50.40;;;;;;;;;;5023576;28;20108;-71
2022/05/23 11:51:12;;;;;;;57.17;54.28;;;;;;;;;;5025721;28;20101;-68
2022/05/23 11:53:55;;;;;;;58.70;55.78;;;;;;;;;;5028199;28;20711;-65
2022/05/23 11:56:43;;;;;;;52.13;49.47;;;;;;;;;;5028813;28;20026;-68
2022/05/23 11:59:23;;;;;;;46.22;43.85;;;;;;;;;;5025080;28;20056;-69
2022/05/23 12:02:06;;;;;;;56.83;53.60;;;;;;;;;;5027187;28;20092;-67
2022/05/23 12:04:32;;;;;;;44.78;42.42;;;;;;;;;;5029265;28;20040;-68
2022/05/23 12:06:58;;;;;;;32.35;30.65;;;;;;;;;;5030137;28;20572;-68
2022/05/23 12:09:33;;;;;;;28.98;27.45;;;;;;;;;;5031976;28;20061;-66
2022/05/23 12:12:27;;;;;;;22.02;20.83;;;;;;;;;;5030336;28;20041;-66
2022/05/23 12:14:55;;;;;;;17.48;16.38;;;;;;;;;;5028344;28;20087;-68
2022/05/23 12:17:27;;;;;;;13.52;12.73;;;;;;;;;;5029358;28;20087;-70
2022/05/23 12:19:55;;;;;;;12.38;11.68;;;;;;;;;;5030247;28;20109;-69
2022/05/23 12:22:26;;;;;;;13.07;12.30;;;;;;;;;;5030693;28;20026;-69
2022/05/23 12:25:09;;;;;;;14.15;13.35;;;;;;;;;;5032816;28;20110;-70
2022/05/23 12:27:38;;;;;;;16.33;15.38;;;;;;;;;;5030822;28;20041;-69
2022/05/23 12:30:24;;;;;;;14.25;13.25;;;;;;;;;;5028532;28;20038;-69
2022/05/23 12:32:58;;;;;;;14.30;13.50;;;;;;;;;;5030159;28;20037;-68
2022/05/23 12:35:29;;;;;;;16.95;15.85;;;;;;;;;;5030019;28;20065;-67
2022/05/23 12:38:23;;;;;;;14.98;14.07;;;;;;;;;;5030574;28;20036;-68
2022/05/23 12:41:07;;;;;;;13.35;12.55;;;;;;;;;;5030226;28;20422;-67
2022/05/23 12:43:56;;;;;;;14.60;13.70;;;;;;;;;;5029207;28;20061;-67
2022/05/23 12:46:37;;;;;;;14.38;13.57;;;;;;;;;;5033353;28;20084;-65
2022/05/23 12:49:44;;;;;;;15.63;14.73;;;;;;;;;;5030431;28;20029;-61
2022/05/23 12:52:22;;;;;;;17.65;16.63;;;;;;;;;;5029644;28;20098;-62
2022/05/23 12:55:16;;;;;;;15.35;14.45;;;;;;;;;;5032890;28;20475;-62
2022/05/23 12:58:01;;;;;;;17.48;16.48;;;;;;;;;;5036163;28;20055;-61
2022/05/23 13:00:43;;;;;;;20.50;19.33;;;;;;;;;;5030882;28;20502;-62
2022/05/23 13:03:52;;;;;;;19.92;18.50;;;;;;;;;;5032975;28;20036;-62
2022/05/23 13:06:37;;;;;;;19.58;18.48;;;;;;;;;;5038794;28;20083;-61
2022/05/23 13:09:09;;;;;;;23.90;22.60;;;;;;;;;;5036087;28;20039;-62
2022/05/23 13:11:39;;;;;;;19.67;18.58;;;;;;;;;;5035092;28;20030;-62
2022/05/23 13:14:05;;;;;;;19.60;18.50;;;;;;;;;;5032751;28;20048;-61
2022/05/23 13:16:37;;;;;;;22.05;20.85;;;;;;;;;;5031017;28;20025;-62
2022/05/23 13:22:06;;;;;;;20.65;19.45;;;;;;;;;;5035166;28;20079;-61
2022/05/23 13:27:43;;;;;;;18.92;17.85;;;;;;;;;;5035334;28;20029;-60
2022/05/23 13:30:34;;;;;;;19.83;18.73;;;;;;;;;;5033768;28;20075;-61
2022/05/23 13:33:14;;;;;;;22.52;21.13;;;;;;;;;;5035879;28;20410;-61
2022/05/23 13:35:41;;;;;;;25.52;24.15;;;;;;;;;;5018953;28;20355;-61
2022/05/23 13:38:16;;;;;;;24.45;23.15;;;;;;;;;;5031110;28;20025;-62
2022/05/23 13:40:48;;;;;;;22.40;21.20;;;;;;;;;;5032848;28;20112;-61
2022/05/23 13:43:18;;;;;;;25.33;23.95;;;;;;;;;;5034704;28;20057;-61
2022/05/23 13:45:46;;;;;;;22.77;21.52;;;;;;;;;;5035019;28;20034;-61
2022/05/23 13:48:44;;;;;;;26.70;25.30;;;;;;;;;;5031910;28;20034;-61
2022/05/23 13:51:19;;;;;;;26.05;24.55;;;;;;;;;;5033563;28;20059;-60
2022/05/23 13:53:51;;;;;;;25.80;24.38;;;;;;;;;;5034941;28;20092;-62
2022/05/23 13:56:18;;;;;;;28.90;27.35;;;;;;;;;;5031419;28;20021;-61
2022/05/23 13:58:48;;;;;;;28.83;27.25;;;;;;;;;;5034322;28;20070;-61
2022/05/23 14:01:31;;;;;;;25.88;24.50;;;;;;;;;;5037017;28;20074;-62
2022/05/23 14:04:05;;;;;;;22.55;21.35;;;;;;;;;;5032555;28;20029;-61
2022/05/23 14:06:38;;;;;;;20.50;19.20;;;;;;;;;;5033623;28;20029;-62
2022/05/23 14:09:06;;;;;;;19.70;18.60;;;;;;;;;;5033596;28;20036;-62
2022/05/23 14:11:53;;;;;;;19.90;18.80;;;;;;;;;;5032602;28;20029;-61
2022/05/23 14:14:18;;;;;;;18.02;16.83;;;;;;;;;;5033827;28;20435;-61
2022/05/23 14:17:25;;;;;;;17.10;16.10;;;;;;;;;;5034754;28;20048;-62
2022/05/23 14:19:55;;;;;;;17.50;16.50;;;;;;;;;;5031919;28;20044;-64
2022/05/23 14:22:25;;;;;;;18.60;17.58;;;;;;;;;;5034313;28;20021;-62
2022/05/23 14:24:53;;;;;;;17.23;16.23;;;;;;;;;;5034940;28;20030;-60
2022/05/23 14:27:26;;;;;;;17.67;16.67;;;;;;;;;;5035317;28;20034;-60
2022/05/23 14:30:17;;;;;;;17.05;16.08;;;;;;;;;;5035310;28;20160;-60
2022/05/23 14:32:54;;;;;;;17.67;16.67;;;;;;;;;;5034582;28;20021;-60
2022/05/23 14:35:24;;;;;;;16.25;15.35;;;;;;;;;;5033385;28;20029;-60
2022/05/23 14:37:51;;;;;;;15.93;15.03;;;;;;;;;;5031193;28;20519;-61
2022/05/23 14:40:26;;;;;;;15.05;14.18;;;;;;;;;;5033749;28;20025;-61
2022/05/23 14:42:53;;;;;;;16.35;15.43;;;;;;;;;;5031662;28;20044;-66
2022/05/23 14:45:21;;;;;;;23.40;22.10;;;;;;;;;;5033942;28;20029;-65
2022/05/23 14:47:53;;;;;;;30.70;28.95;;;;;;;;;;5036342;28;20029;-66
2022/05/23 14:50:21;;;;;;;36.47;34.58;;;;;;;;;;5033150;28;20119;-67
2022/05/23 14:52:46;;;;;;;36.63;34.72;;;;;;;;;;5030572;28;20025;-66
2022/05/23 14:55:18;;;;;;;40.38;38.30;;;;;;;;;;5027775;28;20033;-67
2022/05/23 15:00:49;;;;;;;56.08;53.22;;;;;;;;;;5025695;28;20098;-66
2022/05/23 15:03:22;;;;;;;45.70;43.38;;;;;;;;;;5028588;28;20143;-66
2022/05/23 15:05:53;;;;;;;44.42;42.13;;;;;;;;;;5028843;28;20414;-65
2022/05/23 15:08:19;;;;;;;56.65;53.60;;;;;;;;;;5028248;28;20033;-67
2022/05/23 15:10:44;;;;;;;49.78;47.20;;;;;;;;;;5023570;28;20048;-66
2022/05/23 15:13:11;;;;;;;61.40;58.33;;;;;;;;;;5026926;28;20033;-65
2022/05/23 15:15:38;;;;;;;53.83;51.10;;;;;;;;;;5027485;28;20111;-65
2022/05/23 15:18:04;;;;;;;52.60;49.75;;;;;;;;;;5024188;28;20044;-66
2022/05/23 15:20:30;;;;;;;56.67;53.78;;;;;;;;;;5025985;28;20057;-67
2022/05/23 15:22:56;;;;;;;56.45;53.63;;;;;;;;;;5029512;28;20635;-67
2022/05/23 15:25:23;;;;;;;56.17;53.30;;;;;;;;;;5028004;28;20041;-67
2022/05/23 15:27:49;;;;;;;58.92;55.95;;;;;;;;;;5026366;28;20029;-66
2022/05/23 15:30:19;;;;;;;60.72;57.67;;;;;;;;;;5034847;28;20577;-66
2022/05/23 15:32:46;;;;;;;70.60;67.10;;;;;;;;;;5035252;28;20281;-67
2022/05/23 15:35:13;;;;;;;63.85;60.67;;;;;;;;;;5034948;28;20033;-67
2022/05/23 15:37:39;;;;;;;50.05;47.50;;;;;;;;;;5031653;28;20542;-65
2022/05/23 15:40:06;;;;;;;47.13;44.72;;;;;;;;;;5027230;28;20118;-66
2022/05/23 15:42:33;;;;;;;47.50;45.05;;;;;;;;;;5029106;28;20044;-68
2022/05/23 15:45:04;;;;;;;47.95;45.50;;;;;;;;;;5025181;28;20524;-68
2022/05/23 15:47:29;;;;;;;46.65;44.28;;;;;;;;;;5024201;28;20429;-69
2022/05/23 15:49:58;;;;;;;61.55;58.45;;;;;;;;;;5028707;28;20021;-69
2022/05/23 15:52:24;;;;;;;41.70;39.55;;;;;;;;;;5027447;28;20103;-66
2022/05/23 15:54:49;;;;;;;58.80;55.83;;;;;;;;;;5025646;28;20580;-65
2022/05/23 15:57:19;;;;;;;59.25;56.20;;;;;;;;;;5024867;28;20099;-66
2022/05/23 15:59:44;;;;;;;46.92;44.50;;;;;;;;;;5027888;28;20340;-69
2022/05/23 16:02:10;;;;;;;44.72;42.42;;;;;;;;;;5024121;28;20196;-67